Pecos, New Mexico
Current Conditions -  °F | °C
As of 6:53 PM on Saturday 22 Nov 2014 (Local Time) from KSAF Reporting Station
Clear Clear  
Wind Chill:   Ceiling: Unl
Heat Index:   Visibility: 10mi
Dew Point: -12°   Wind: 6mph
Humidity: 31%   Direction: 350°N
Pressure: 29.89"   Gusts: NA
Location:  35.57°N, 105.68°W
Report Text: KSAF 230153Z AUTO 35005KT 10SM CLR 04/M12 A2989 RMK AO2 SLP114 T00441117
Loading
Personal Weather Stations






























Interactive Weather Map New forecast layout! Learn more

10-Day Weather Forecast

Advertisements
Track Severe Weather on mobile